^^
Datos históricos de la estación: Murcia-Puente Tocinos
Diario Informe para Abril 4, 2019 Unidades:  Ambas    Ingés   Métrico
Diario Semanal Mensual Anual
  Máxima: Mínima: Promedio:
Temperatura: 86.7 °F /  30.4 °C 63.9 °F /  17.7 °C 74.5 °F /  23.6 °C
Punto de rocio: 59.4 °F /  15.2 °C 46.9 °F /  8.3 °C 51.4 °F /  10.8 °C
Humedad: 69% 26% 47%
Velocidad viento: 10mph /  16.1km/h - 3.8mph /  6.1km/h
Racha viento: 17.5mph /  28.2km/h - -
Viento- - Sur
Presión: 30 in /  1016.4 hPa 29.9 in /  1012.4 hPa -
Precipitación: 0 in /  0.0 mm    
 
 
Tabla de datos para Abril 4, 2019
Hora Temperatura Punto de rocio Presión Viento Velocidad viento Racha viento Humedad Intensidad lluvia(por hora) Nubes
00:04 71.1 °F /  21.7 °C 59 °F /  15 °C 30in /  1015.5hPa Oeste 2.4mph /  3.9km/h 5mph /  8km/h 65.8% 0in /  0.0mm
00:09 70.9 °F /  21.6 °C 59 °F /  15 °C 30in /  1015.5hPa Oeste 2.3mph /  3.7km/h 4.6mph /  7.4km/h 66% 0in /  0.0mm
00:14 70.5 °F /  21.4 °C 59.2 °F /  15.1 °C 30in /  1015.5hPa NO 1.8mph /  2.9km/h 5mph /  8km/h 67.4% 0in /  0.0mm
00:19 70.3 °F /  21.3 °C 59.4 °F /  15.2 °C 30in /  1015.5hPa NO 1.8mph /  2.9km/h 4mph /  6.4km/h 68.3% 0in /  0.0mm
00:24 70.2 °F /  21.2 °C 59.4 °F /  15.2 °C 30in /  1015.4hPa NO 1.8mph /  2.9km/h 3mph /  4.8km/h 69% 0in /  0.0mm
00:29 69.8 °F /  21 °C 58.8 °F /  14.9 °C 30in /  1015.4hPa SO 1.8mph /  2.9km/h 5.8mph /  9.3km/h 68.3% 0in /  0.0mm
00:34 69.4 °F /  20.8 °C 58.1 °F /  14.5 °C 30in /  1015.5hPa SE 1.8mph /  2.9km/h 6mph /  9.7km/h 67.5% 0in /  0.0mm
00:39 69.3 °F /  20.7 °C 57.6 °F /  14.2 °C 30in /  1015.5hPa SSE 1.9mph /  3.1km/h 5.9mph /  9.5km/h 66.5% 0in /  0.0mm
00:44 69.4 °F /  20.8 °C 56.7 °F /  13.7 °C 30in /  1015.5hPa Sur 3.1mph /  5km/h 7.4mph /  11.9km/h 64.1% 0in /  0.0mm
00:49 69.8 °F /  21 °C 56.3 °F /  13.5 °C 30in /  1015.5hPa SSO 3.4mph /  5.4km/h 8.1mph /  13km/h 62.2% 0in /  0.0mm
00:54 70 °F /  21.1 °C 55.9 °F /  13.3 °C 30in /  1015.4hPa SO 5.2mph /  8.4km/h 9.7mph /  15.6km/h 61.1% 0in /  0.0mm
00:59 70.2 °F /  21.2 °C 56.1 °F /  13.4 °C 30in /  1015.4hPa SO 5.3mph /  8.6km/h 10mph /  16.1km/h 61% 0in /  0.0mm
01:04 70.2 °F /  21.2 °C 55.6 °F /  13.1 °C 30in /  1015.4hPa SO 5.9mph /  9.5km/h 9mph /  14.5km/h 60% 0in /  0.0mm
01:09 70.2 °F /  21.2 °C 55.6 °F /  13.1 °C 30in /  1015.4hPa SO 5.7mph /  9.2km/h 9mph /  14.5km/h 60% 0in /  0.0mm
01:14 70.2 °F /  21.2 °C 55.4 °F /  13 °C 30in /  1015.4hPa SSO 4.7mph /  7.6km/h 7mph /  11.3km/h 59.6% 0in /  0.0mm
01:19 70.2 °F /  21.2 °C 55.2 °F /  12.9 °C 30in /  1015.4hPa SSO 4.6mph /  7.4km/h 6.2mph /  10km/h 59% 0in /  0.0mm
01:24 70.2 °F /  21.2 °C 55.2 °F /  12.9 °C 30in /  1015.4hPa Sur 4mph /  6.5km/h 6mph /  9.7km/h 59% 0in /  0.0mm
01:29 70 °F /  21.1 °C 55.8 °F /  13.2 °C 30in /  1015.4hPa SE 3.9mph /  6.3km/h 6mph /  9.7km/h 60.8% 0in /  0.0mm
01:34 69.3 °F /  20.7 °C 55.9 °F /  13.3 °C 30in /  1015.4hPa SSE 2.9mph /  4.7km/h 6mph /  9.7km/h 62.4% 0in /  0.0mm
01:39 68.7 °F /  20.4 °C 55.6 °F /  13.1 °C 30in /  1015.3hPa Sur 3mph /  4.8km/h 5.8mph /  9.3km/h 63% 0in /  0.0mm
01:44 68.5 °F /  20.3 °C 55.4 °F /  13 °C 30in /  1015.2hPa SSO 3.6mph /  5.8km/h 6mph /  9.7km/h 63% 0in /  0.0mm
01:49 68.7 °F /  20.4 °C 55.6 °F /  13.1 °C 30in /  1015.2hPa SSO 3.6mph /  5.8km/h 6mph /  9.7km/h 63% 0in /  0.0mm
01:54 68.7 °F /  20.4 °C 55.6 °F /  13.1 °C 30in /  1015.1hPa SSE 3.6mph /  5.8km/h 5.2mph /  8.4km/h 63% 0in /  0.0mm
01:59 68.5 °F /  20.3 °C 55.6 °F /  13.1 °C 30in /  1015.1hPa SE 3.5mph /  5.6km/h 5.8mph /  9.3km/h 63.3% 0in /  0.0mm
02:04 68.2 °F /  20.1 °C 55.4 °F /  13 °C 30in /  1015.1hPa SSE 3.1mph /  5km/h 6.2mph /  10km/h 64% 0in /  0.0mm
02:09 67.6 °F /  19.8 °C 55.4 °F /  13 °C 30in /  1015.1hPa SSE 3.3mph /  5.3km/h 8.5mph /  13.7km/h 65% 0in /  0.0mm
02:14 67.5 °F /  19.7 °C 55.2 °F /  12.9 °C 30in /  1015.1hPa Sur 4.7mph /  7.5km/h 10.7mph /  17.2km/h 65% 0in /  0.0mm
02:19 67.5 °F /  19.7 °C 55.4 °F /  13 °C 30in /  1015.1hPa SSO 4.9mph /  7.9km/h 11mph /  17.7km/h 65% 0in /  0.0mm
02:24 67.6 °F /  19.8 °C 55.4 °F /  13 °C 30in /  1015.1hPa SSO 6.4mph /  10.3km/h 9mph /  14.5km/h 64.8% 0in /  0.0mm
02:29 67.8 °F /  19.9 °C 55.2 °F /  12.9 °C 30in /  1015.1hPa Sur 6.2mph /  9.9km/h 8mph /  12.9km/h 64% 0in /  0.0mm
02:34 67.8 °F /  19.9 °C 55.2 °F /  12.9 °C 30in /  1015.2hPa Sur 4mph /  6.5km/h 6mph /  9.7km/h 64% 0in /  0.0mm
02:39 68 °F /  20 °C 55.4 °F /  13 °C 30in /  1015.2hPa Sur 3.9mph /  6.2km/h 5mph /  8km/h 64% 0in /  0.0mm
02:44 67.8 °F /  19.9 °C 55.2 °F /  12.9 °C 30in /  1015.2hPa SO 2.4mph /  3.9km/h 6.9mph /  11.1km/h 64% 0in /  0.0mm
02:49 67.8 °F /  19.9 °C 55.2 °F /  12.9 °C 30in /  1015.2hPa SO 2.7mph /  4.3km/h 9.2mph /  14.8km/h 64% 0in /  0.0mm
02:54 67.8 °F /  19.9 °C 55.2 °F /  12.9 °C 30in /  1015.2hPa SO 4.7mph /  7.5km/h 9mph /  14.5km/h 64% 0in /  0.0mm
02:59 67.8 °F /  19.9 °C 55 °F /  12.8 °C 30in /  1015.2hPa SSO 4.8mph /  7.7km/h 9.2mph /  14.8km/h 63.6% 0in /  0.0mm
03:04 67.6 °F /  19.8 °C 54.7 °F /  12.6 °C 30in /  1015.2hPa SO 5.2mph /  8.4km/h 9mph /  14.5km/h 63% 0in /  0.0mm
03:09 67.6 °F /  19.8 °C 54.7 °F /  12.6 °C 30in /  1015.2hPa OSO 5mph /  8.1km/h 6.2mph /  10km/h 63% 0in /  0.0mm
03:14 67.5 °F /  19.7 °C 54.5 °F /  12.5 °C 30in /  1015.2hPa SO 3.6mph /  5.8km/h 6mph /  9.7km/h 63% 0in /  0.0mm
03:19 67.5 °F /  19.7 °C 54.3 °F /  12.4 °C 30in /  1015.2hPa SO 3.5mph /  5.7km/h 6mph /  9.7km/h 63% 0in /  0.0mm
03:24 67.5 °F /  19.7 °C 54.3 °F /  12.4 °C 30in /  1015.1hPa Sur 3.1mph /  5km/h 5mph /  8km/h 63% 0in /  0.0mm
03:29 67.3 °F /  19.6 °C 54.3 °F /  12.4 °C 30in /  1015.1hPa Sur 3mph /  4.8km/h 5.8mph /  9.3km/h 63% 0in /  0.0mm
03:34 67.3 °F /  19.6 °C 54.3 °F /  12.4 °C 30in /  1015.1hPa SSO 2.4mph /  3.9km/h 8.5mph /  13.7km/h 63% 0in /  0.0mm
03:39 67.5 °F /  19.7 °C 54.3 °F /  12.4 °C 30in /  1015.0hPa SO 2.7mph /  4.4km/h 9.2mph /  14.8km/h 62.7% 0in /  0.0mm
03:44 67.5 °F /  19.7 °C 54.1 °F /  12.3 °C 30in /  1014.9hPa SO 5.4mph /  8.7km/h 9mph /  14.5km/h 62.3% 0in /  0.0mm
03:49 67.5 °F /  19.7 °C 54.3 °F /  12.4 °C 30in /  1014.9hPa SO 5.4mph /  8.7km/h 8.5mph /  13.7km/h 63% 0in /  0.0mm
03:54 67.3 °F /  19.6 °C 54.3 °F /  12.4 °C 30in /  1014.9hPa SO 5.2mph /  8.4km/h 9mph /  14.5km/h 63% 0in /  0.0mm
03:59 66.9 °F /  19.4 °C 54.1 °F /  12.3 °C 30in /  1014.9hPa SO 5.1mph /  8.2km/h 9mph /  14.5km/h 63.4% 0in /  0.0mm
04:04 66.9 °F /  19.4 °C 54.3 °F /  12.4 °C 30in /  1014.9hPa SO 4.7mph /  7.6km/h 7mph /  11.3km/h 64% 0in /  0.0mm
04:09 66.7 °F /  19.3 °C 54.3 °F /  12.4 °C 30in /  1014.8hPa SO 4.6mph /  7.4km/h 6mph /  9.7km/h 64% 0in /  0.0mm
04:14 66.7 °F /  19.3 °C 54.1 °F /  12.3 °C 30in /  1014.8hPa SSO 3.6mph /  5.8km/h 7.4mph /  11.9km/h 64% 0in /  0.0mm
04:19 66.6 °F /  19.2 °C 54.1 °F /  12.3 °C 30in /  1014.8hPa SSO 3.7mph /  6km/h 8.1mph /  13km/h 64% 0in /  0.0mm
04:24 66.6 °F /  19.2 °C 54 °F /  12.2 °C 30in /  1014.8hPa SSO 5.2mph /  8.4km/h 8.5mph /  13.7km/h 64% 0in /  0.0mm
04:29 66.6 °F /  19.2 °C 53.8 °F /  12.1 °C 30in /  1014.8hPa SSO 5.3mph /  8.5km/h 9.2mph /  14.8km/h 63.3% 0in /  0.0mm
04:34 66.6 °F /  19.2 °C 54 °F /  12.2 °C 30in /  1014.8hPa SSO 5.9mph /  9.5km/h 9mph /  14.5km/h 63.9% 0in /  0.0mm
04:39 66.4 °F /  19.1 °C 53.8 °F /  12.1 °C 30in /  1014.8hPa SSO 5.8mph /  9.4km/h 9mph /  14.5km/h 63.9% 0in /  0.0mm
04:44 66.2 °F /  19 °C 53.4 °F /  11.9 °C 30in /  1014.8hPa SSO 5.4mph /  8.7km/h 7mph /  11.3km/h 63.6% 0in /  0.0mm
04:49 66.2 °F /  19 °C 53.2 °F /  11.8 °C 30in /  1014.8hPa SSO 5.2mph /  8.3km/h 7mph /  11.3km/h 63% 0in /  0.0mm
04:54 66 °F /  18.9 °C 52.9 °F /  11.6 °C 30in /  1014.7hPa SSO 3.6mph /  5.8km/h 7.4mph /  11.9km/h 62.6% 0in /  0.0mm
04:59 66 °F /  18.9 °C 52.7 °F /  11.5 °C 30in /  1014.7hPa SSO 3.8mph /  6.1km/h 7mph /  11.3km/h 62.2% 0in /  0.0mm
05:04 66 °F /  18.9 °C 52.7 °F /  11.5 °C 30in /  1014.8hPa SSO 4.7mph /  7.6km/h 6.9mph /  11.1km/h 62.1% 0in /  0.0mm
05:09 65.8 °F /  18.8 °C 52.5 °F /  11.4 °C 30in /  1014.8hPa SSO 4.6mph /  7.4km/h 7mph /  11.3km/h 62.2% 0in /  0.0mm
05:14 65.8 °F /  18.8 °C 52.5 °F /  11.4 °C 30in /  1014.8hPa SO 4mph /  6.5km/h 6.9mph /  11.1km/h 62% 0in /  0.0mm
05:19 65.8 °F /  18.8 °C 52.5 °F /  11.4 °C 30in /  1014.9hPa OSO 4mph /  6.5km/h 7mph /  11.3km/h 61.8% 0in /  0.0mm
05:24 65.8 °F /  18.8 °C 52.5 °F /  11.4 °C 30in /  1014.9hPa OSO 4mph /  6.5km/h 5.8mph /  9.3km/h 62% 0in /  0.0mm
05:29 65.7 °F /  18.7 °C 52.3 °F /  11.3 °C 30in /  1014.9hPa OSO 3.9mph /  6.3km/h 6mph /  9.7km/h 62% 0in /  0.0mm
05:34 65.7 °F /  18.7 °C 52 °F /  11.1 °C 30in /  1014.9hPa SO 3.1mph /  5km/h 6.2mph /  10km/h 61.7% 0in /  0.0mm
05:39 65.7 °F /  18.7 °C 51.8 °F /  11 °C 30in /  1014.8hPa OSO 3.2mph /  5.2km/h 6mph /  9.7km/h 61% 0in /  0.0mm
05:44 65.7 °F /  18.7 °C 51.6 °F /  10.9 °C 30in /  1014.8hPa SSO 4mph /  6.4km/h 6.4mph /  10.3km/h 60.7% 0in /  0.0mm
05:49 65.8 °F /  18.8 °C 51.4 °F /  10.8 °C 30in /  1014.9hPa SSO 4mph /  6.5km/h 9.2mph /  14.8km/h 59.8% 0in /  0.0mm
05:54 66 °F /  18.9 °C 51.4 °F /  10.8 °C 30in /  1014.9hPa SSO 4.3mph /  6.9km/h 9mph /  14.5km/h 59.4% 0in /  0.0mm
05:59 66 °F /  18.9 °C 51.4 °F /  10.8 °C 30in /  1014.9hPa SSO 4.3mph /  6.9km/h 7mph /  11.3km/h 59.3% 0in /  0.0mm
06:04 65.8 °F /  18.8 °C 51.6 °F /  10.9 °C 30in /  1014.9hPa SSO 4mph /  6.5km/h 7mph /  11.3km/h 60% 0in /  0.0mm
06:09 65.7 °F /  18.7 °C 51.4 °F /  10.8 °C 30in /  1014.9hPa SO 4mph /  6.5km/h 7mph /  11.3km/h 60% 0in /  0.0mm
06:14 65.7 °F /  18.7 °C 51.4 °F /  10.8 °C 30in /  1014.9hPa SO 4mph /  6.5km/h 7mph /  11.3km/h 60% 0in /  0.0mm
06:19 65.7 °F /  18.7 °C 51.1 °F /  10.6 °C 30in /  1014.9hPa OSO 4mph /  6.5km/h 6mph /  9.7km/h 59.5% 0in /  0.0mm
06:24 65.5 °F /  18.6 °C 50.7 °F /  10.4 °C 30in /  1014.9hPa SO 4mph /  6.5km/h 6.4mph /  10.3km/h 58.7% 0in /  0.0mm
06:29 65.5 °F /  18.6 °C 50.4 °F /  10.2 °C 30in /  1014.9hPa SO 4mph /  6.5km/h 7mph /  11.3km/h 58% 0in /  0.0mm
06:34 65.5 °F /  18.6 °C 50.4 °F /  10.2 °C 30in /  1015.0hPa SSO 4mph /  6.5km/h 6mph /  9.7km/h 58% 0in /  0.0mm
06:39 65.7 °F /  18.7 °C 50.7 °F /  10.4 °C 30in /  1015.0hPa SSE 3.7mph /  6km/h 3.5mph /  5.6km/h 58.4% 0in /  0.0mm
06:44 65.7 °F /  18.7 °C 50.9 °F /  10.5 °C 30in /  1015.0hPa SSE 1.8mph /  2.9km/h 3mph /  4.8km/h 59.3% 0in /  0.0mm
06:49 65.5 °F /  18.6 °C 51.3 °F /  10.7 °C 30in /  1015.1hPa SSE 1.6mph /  2.5km/h 2.3mph /  3.7km/h 60.1% 0in /  0.0mm
06:54 65.1 °F /  18.4 °C 51.1 °F /  10.6 °C 30in /  1015.1hPa Calm   3.6mph /  5.8km/h 60.3% 0in /  0.0mm
06:59 64.9 °F /  18.3 °C 51.1 °F /  10.6 °C 30in /  1015.1hPa NNO 0.3mph /  0.5km/h 4mph /  6.4km/h 61% 0in /  0.0mm
07:04 64.6 °F /  18.1 °C 50.7 °F /  10.4 °C 30in /  1015.2hPa NNO 1.8mph /  2.9km/h 4mph /  6.4km/h 60.8% 0in /  0.0mm
07:09 64.2 °F /  17.9 °C 50.5 °F /  10.3 °C 30in /  1015.2hPa NNO 1.8mph /  2.9km/h 3.5mph /  5.6km/h 61% 0in /  0.0mm
07:14 64.2 °F /  17.9 °C 50.4 °F /  10.2 °C 30in /  1015.2hPa NNO 1.8mph /  2.9km/h 3.5mph /  5.6km/h 60.9% 0in /  0.0mm
07:19 64.2 °F /  17.9 °C 50.5 °F /  10.3 °C 30in /  1015.2hPa NNO 1.6mph /  2.5km/h 2.4mph /  3.9km/h 61% 0in /  0.0mm
07:24 64.2 °F /  17.9 °C 50.5 °F /  10.3 °C 30in /  1015.2hPa Calm   3.6mph /  5.8km/h 61% 0in /  0.0mm
07:29 64.2 °F /  17.9 °C 50.2 °F /  10.1 °C 30in /  1015.2hPa Sur 0.2mph /  0.4km/h 4.6mph /  7.4km/h 60.4% 0in /  0.0mm
07:34 64.4 °F /  18 °C 50.2 °F /  10.1 °C 30in /  1015.3hPa SSO 2mph /  3.2km/h 5.2mph /  8.4km/h 60% 0in /  0.0mm
07:39 64.6 °F /  18.1 °C 50.4 °F /  10.2 °C 30in /  1015.3hPa SO 2.1mph /  3.4km/h 5mph /  8km/h 60% 0in /  0.0mm
07:44 64.6 °F /  18.1 °C 50.7 °F /  10.4 °C 30in /  1015.3hPa ONO 2.9mph /  4.7km/h 5mph /  8km/h 60.6% 0in /  0.0mm
07:49 64.6 °F /  18.1 °C 50.5 °F /  10.3 °C 30in /  1015.4hPa NO 2.8mph /  4.5km/h 5mph /  8km/h 60.5% 0in /  0.0mm
07:54 64.4 °F /  18 °C 50.7 °F /  10.4 °C 30in /  1015.4hPa NO 1.8mph /  2.9km/h 3mph /  4.8km/h 61% 0in /  0.0mm
07:59 64.2 °F /  17.9 °C 50.7 °F /  10.4 °C 30in /  1015.4hPa NO 1.8mph /  2.9km/h 2.9mph /  4.7km/h 61.6% 0in /  0.0mm
08:04 64.2 °F /  17.9 °C 51.3 °F /  10.7 °C 30in /  1015.6hPa NO 1.8mph /  2.9km/h 3mph /  4.8km/h 62.8% 0in /  0.0mm
08:09 64 °F /  17.8 °C 51.3 °F /  10.7 °C 30in /  1015.6hPa Oeste 1.8mph /  2.9km/h 4.3mph /  6.9km/h 63% 0in /  0.0mm
08:14 63.9 °F /  17.7 °C 50.4 °F /  10.2 °C 30in /  1015.6hPa OSO 1.8mph /  2.9km/h 5.2mph /  8.4km/h 61.6% 0in /  0.0mm
08:19 64 °F /  17.8 °C 50.2 °F /  10.1 °C 30in /  1015.6hPa SO 2mph /  3.2km/h 5.9mph /  9.5km/h 60.8% 0in /  0.0mm
08:24 64.2 °F /  17.9 °C 50 °F /  10 °C 30in /  1015.5hPa SO 3.1mph /  5km/h 6.2mph /  10km/h 60.1% 0in /  0.0mm
08:29 64.6 °F /  18.1 °C 50 °F /  10 °C 30in /  1015.5hPa SO 3.2mph /  5.2km/h 6.2mph /  10km/h 59% 0in /  0.0mm
08:34 64.9 °F /  18.3 °C 49.5 °F /  9.7 °C 30in /  1015.6hPa SO 4mph /  6.4km/h 6.2mph /  10km/h 57.6% 0in /  0.0mm
08:39 65.3 °F /  18.5 °C 49.3 °F /  9.6 °C 30in /  1015.6hPa SO 4mph /  6.5km/h 6.9mph /  11.1km/h 56.3% 0in /  0.0mm
08:44 65.7 °F /  18.7 °C 49.1 °F /  9.5 °C 30in /  1015.6hPa SO 4.3mph /  6.9km/h 7mph /  11.3km/h 55.2% 0in /  0.0mm
08:49 66.2 °F /  19 °C 49.1 °F /  9.5 °C 30in /  1015.9hPa OSO 4.3mph /  6.9km/h 6mph /  9.7km/h 54.2% 0in /  0.0mm
08:54 66.6 °F /  19.2 °C 49.3 °F /  9.6 °C 30in /  1015.9hPa SO 4.3mph /  6.9km/h 6mph /  9.7km/h 54% 0in /  0.0mm
08:59 66.7 °F /  19.3 °C 49.5 °F /  9.7 °C 30in /  1015.9hPa SSO 4.2mph /  6.7km/h 5.9mph /  9.5km/h 54% 0in /  0.0mm
09:04 66.9 °F /  19.4 °C 49.5 °F /  9.7 °C 30in /  1015.9hPa SSO 3.6mph /  5.8km/h 6mph /  9.7km/h 53.7% 0in /  0.0mm
09:09 67.1 °F /  19.5 °C 49.6 °F /  9.8 °C 30in /  1015.9hPa SSE 3.5mph /  5.7km/h 5mph /  8km/h 53.3% 0in /  0.0mm
09:14 67.5 °F /  19.7 °C 50.2 °F /  10.1 °C 30in /  1015.9hPa Sur 3.1mph /  5km/h 5.2mph /  8.4km/h 53.9% 0in /  0.0mm
09:19 67.6 °F /  19.8 °C 50.4 °F /  10.2 °C 30in /  1016.1hPa SO 3mph /  4.9km/h 5mph /  8km/h 53.9% 0in /  0.0mm
09:24 67.8 °F /  19.9 °C 50.4 °F /  10.2 °C 30in /  1016.1hPa SO 2.9mph /  4.7km/h 5.9mph /  9.5km/h 53.3% 0in /  0.0mm
09:29 68.2 °F /  20.1 °C 50.4 °F /  10.2 °C 30in /  1016.1hPa SO 2.9mph /  4.7km/h 6.2mph /  10km/h 53% 0in /  0.0mm
09:34 68.4 °F /  20.2 °C 49.8 °F /  9.9 °C 30in /  1016.1hPa OSO 2.9mph /  4.7km/h 6.9mph /  11.1km/h 51.4% 0in /  0.0mm
09:39 68.5 °F /  20.3 °C 49.3 °F /  9.6 °C 30in /  1016.1hPa OSO 3mph /  4.9km/h 7.4mph /  11.9km/h 50.1% 0in /  0.0mm
09:44 68.7 °F /  20.4 °C 48.7 °F /  9.3 °C 30in /  1016.1hPa OSO 4.3mph /  6.9km/h 7mph /  11.3km/h 49.1% 0in /  0.0mm
09:49 68.9 °F /  20.5 °C 48.7 °F /  9.3 °C 30in /  1016.2hPa OSO 4.2mph /  6.8km/h 7mph /  11.3km/h 48.7% 0in /  0.0mm
09:54 69.1 °F /  20.6 °C 48.6 °F /  9.2 °C 30in /  1016.2hPa OSO 3.6mph /  5.8km/h 6mph /  9.7km/h 48% 0in /  0.0mm
09:59 69.3 °F /  20.7 °C 48.9 °F /  9.4 °C 30in /  1016.2hPa SO 3.4mph /  5.5km/h 5mph /  8km/h 48.3% 0in /  0.0mm
10:04 69.6 °F /  20.9 °C 49.1 °F /  9.5 °C 30in /  1016.3hPa OSO 2.4mph /  3.9km/h 5.8mph /  9.3km/h 47.9% 0in /  0.0mm
10:09 70 °F /  21.1 °C 48.7 °F /  9.3 °C 30in /  1016.3hPa OSO 2.4mph /  3.9km/h 6mph /  9.7km/h 47% 0in /  0.0mm
10:14 70.2 °F /  21.2 °C 48.9 °F /  9.4 °C 30in /  1016.3hPa OSO 2.9mph /  4.7km/h 5mph /  8km/h 47% 0in /  0.0mm
10:19 70.3 °F /  21.3 °C 49.1 °F /  9.5 °C 30in /  1016.4hPa SO 2.9mph /  4.7km/h 5mph /  8km/h 46.9% 0in /  0.0mm
10:24 70.7 °F /  21.5 °C 49.1 °F /  9.5 °C 30in /  1016.4hPa SO 2.9mph /  4.7km/h 5.9mph /  9.5km/h 46.4% 0in /  0.0mm
10:29 71.1 °F /  21.7 °C 49.1 °F /  9.5 °C 30in /  1016.4hPa OSO 3mph /  4.8km/h 6.2mph /  10km/h 45.9% 0in /  0.0mm
10:34 71.2 °F /  21.8 °C 48.9 °F /  9.4 °C 30in /  1016.4hPa OSO 3.6mph /  5.8km/h 6mph /  9.7km/h 45.3% 0in /  0.0mm
10:39 71.4 °F /  21.9 °C 49.6 °F /  9.8 °C 30in /  1016.4hPa SO 3.6mph /  5.8km/h 6.2mph /  10km/h 46% 0in /  0.0mm
10:44 72 °F /  22.2 °C 49.5 °F /  9.7 °C 30in /  1016.4hPa SO 3.6mph /  5.8km/h 6.9mph /  11.1km/h 45.1% 0in /  0.0mm
10:49 72.3 °F /  22.4 °C 49.6 °F /  9.8 °C 30in /  1016.4hPa Sur 3.7mph /  5.9km/h 7mph /  11.3km/h 44.7% 0in /  0.0mm
10:54 72.7 °F /  22.6 °C 49.5 °F /  9.7 °C 30in /  1016.4hPa SSO 4mph /  6.4km/h 7mph /  11.3km/h 44.1% 0in /  0.0mm
10:59 72.9 °F /  22.7 °C 49.6 °F /  9.8 °C 30in /  1016.4hPa OSO 3.9mph /  6.2km/h 5mph /  8km/h 43.8% 0in /  0.0mm
11:04 73.4 °F /  23 °C 49.8 °F /  9.9 °C 30in /  1016.4hPa Sur 3.1mph /  5km/h 5.9mph /  9.5km/h 43.7% 0in /  0.0mm
11:09 73.8 °F /  23.2 °C 49.8 °F /  9.9 °C 30in /  1016.3hPa SSE 3.2mph /  5.2km/h 7.4mph /  11.9km/h 43% 0in /  0.0mm
11:14 73.9 °F /  23.3 °C 49.8 °F /  9.9 °C 30in /  1016.3hPa Sur 4.3mph /  6.9km/h 7.4mph /  11.9km/h 42.4% 0in /  0.0mm
11:19 74.1 °F /  23.4 °C 49.5 °F /  9.7 °C 30in /  1016.3hPa SSO 4.3mph /  6.9km/h 7mph /  11.3km/h 41.8% 0in /  0.0mm
11:24 74.5 °F /  23.6 °C 49.8 °F /  9.9 °C 30in /  1016.3hPa Sur 4mph /  6.5km/h 6.2mph /  10km/h 41.8% 0in /  0.0mm
11:29 75 °F /  23.9 °C 50 °F /  10 °C 30in /  1016.3hPa SSO 4mph /  6.4km/h 6mph /  9.7km/h 41.4% 0in /  0.0mm
11:34 75.4 °F /  24.1 °C 49.8 °F /  9.9 °C 30in /  1016.3hPa Sur 3.6mph /  5.8km/h 6mph /  9.7km/h 40.7% 0in /  0.0mm
11:39 75.7 °F /  24.3 °C 50 °F /  10 °C 30in /  1016.3hPa SSO 3.5mph /  5.6km/h 6mph /  9.7km/h 40.4% 0in /  0.0mm
11:44 76.3 °F /  24.6 °C 50.2 °F /  10.1 °C 30in /  1016.3hPa SO 2.4mph /  3.9km/h 5mph /  8km/h 40% 0in /  0.0mm
11:49 77 °F /  25 °C 50.5 °F /  10.3 °C 30in /  1016.3hPa Sur 2.4mph /  3.8km/h 5mph /  8km/h 39.7% 0in /  0.0mm
11:54 77.4 °F /  25.2 °C 50.2 °F /  10.1 °C 30in /  1016.2hPa SSO 2mph /  3.2km/h 6.9mph /  11.1km/h 38.5% 0in /  0.0mm
11:59 77.4 °F /  25.2 °C 49.8 °F /  9.9 °C 30in /  1016.2hPa SO 2.2mph /  3.5km/h 7mph /  11.3km/h 38% 0in /  0.0mm
12:04 77.4 °F /  25.2 °C 50.4 °F /  10.2 °C 30in /  1016.2hPa SO 3.1mph /  5km/h 6mph /  9.7km/h 38.9% 0in /  0.0mm
12:09 77.5 °F /  25.3 °C 50 °F /  10 °C 30in /  1016.2hPa SSE 3mph /  4.9km/h 5mph /  8km/h 38.2% 0in /  0.0mm
12:14 78.1 °F /  25.6 °C 50.4 °F /  10.2 °C 30in /  1016.2hPa ENE 2.9mph /  4.7km/h 5mph /  8km/h 38% 0in /  0.0mm
12:19 78.4 °F /  25.8 °C 50.4 °F /  10.2 °C 30in /  1016.2hPa Este 2.9mph /  4.6km/h 5mph /  8km/h 37.5% 0in /  0.0mm
12:24 79.2 °F /  26.2 °C 50.5 °F /  10.3 °C 30in /  1016.1hPa Sur 2.4mph /  3.9km/h 5mph /  8km/h 37% 0in /  0.0mm
12:29 79.3 °F /  26.3 °C 50.2 °F /  10.1 °C 30in /  1016.1hPa SO 2.4mph /  3.8km/h 4.6mph /  7.4km/h 36.1% 0in /  0.0mm
12:34 79.7 °F /  26.5 °C 50.9 °F /  10.5 °C 30in /  1016.1hPa NNO 2mph /  3.2km/h 5mph /  8km/h 36.7% 0in /  0.0mm
12:39 80.1 °F /  26.7 °C 50.7 °F /  10.4 °C 30in /  1016.0hPa NNE 2.1mph /  3.3km/h 5.8mph /  9.3km/h 36% 0in /  0.0mm
12:44 80.2 °F /  26.8 °C 50.9 °F /  10.5 °C 30in /  1016.0hPa NE 2.4mph /  3.9km/h 6mph /  9.7km/h 36% 0in /  0.0mm
12:49 80.4 °F /  26.9 °C 50.9 °F /  10.5 °C 30in /  1016.0hPa NNO 2.4mph /  3.8km/h 5mph /  8km/h 35.9% 0in /  0.0mm
12:54 80.8 °F /  27.1 °C 51.3 °F /  10.7 °C 30in /  1015.9hPa NNE 2mph /  3.2km/h 5.8mph /  9.3km/h 36% 0in /  0.0mm
12:59 81 °F /  27.2 °C 51.3 °F /  10.7 °C 30in /  1015.9hPa NNO 2.1mph /  3.3km/h 6mph /  9.7km/h 35.6% 0in /  0.0mm
13:04 81.1 °F /  27.3 °C 51.1 °F /  10.6 °C 30in /  1015.9hPa NNE 2.4mph /  3.9km/h 5.9mph /  9.5km/h 35.3% 0in /  0.0mm
13:09 81.1 °F /  27.3 °C 51.1 °F /  10.6 °C 30in /  1015.8hPa NO 2.5mph /  4km/h 6mph /  9.7km/h 35.2% 0in /  0.0mm
13:14 81.1 °F /  27.3 °C 51.3 °F /  10.7 °C 30in /  1015.8hPa NE 3.1mph /  5km/h 6.9mph /  11.1km/h 35.7% 0in /  0.0mm
13:19 81 °F /  27.2 °C 51.3 °F /  10.7 °C 30in /  1015.8hPa NNE 3.2mph /  5.2km/h 7mph /  11.3km/h 35.8% 0in /  0.0mm
13:24 81 °F /  27.2 °C 51.1 °F /  10.6 °C 30in /  1015.8hPa NNO 4mph /  6.4km/h 6mph /  9.7km/h 35.4% 0in /  0.0mm
13:29 81.3 °F /  27.4 °C 51.1 °F /  10.6 °C 30in /  1015.7hPa NE 3.8mph /  6.1km/h 5.8mph /  9.3km/h 35% 0in /  0.0mm
13:34 81.7 °F /  27.6 °C 50.9 °F /  10.5 °C 30in /  1015.7hPa NE 2.4mph /  3.9km/h 8.1mph /  13km/h 34.3% 0in /  0.0mm
13:39 81.7 °F /  27.6 °C 50.5 °F /  10.3 °C 30in /  1015.5hPa NE 2.4mph /  3.9km/h 8mph /  12.9km/h 34% 0in /  0.0mm
13:44 82 °F /  27.8 °C 50.5 °F /  10.3 °C 30in /  1015.4hPa NNO 2.9mph /  4.7km/h 5mph /  8km/h 33.5% 0in /  0.0mm
13:49 82.4 °F /  28 °C 50.7 °F /  10.4 °C 30in /  1015.4hPa NNE 2.9mph /  4.6km/h 5.4mph /  8.7km/h 33.3% 0in /  0.0mm
13:54 82.8 °F /  28.2 °C 50.5 °F /  10.3 °C 30in /  1015.3hPa NE 2.4mph /  3.9km/h 6.2mph /  10km/h 32.8% 0in /  0.0mm
13:59 82.6 °F /  28.1 °C 50.4 °F /  10.2 °C 30in /  1015.3hPa ENE 2.6mph /  4.2km/h 6.9mph /  11.1km/h 32.7% 0in /  0.0mm
14:04 82.6 °F /  28.1 °C 49.8 °F /  9.9 °C 30in /  1015.3hPa ENE 3.6mph /  5.8km/h 7mph /  11.3km/h 32% 0in /  0.0mm
14:09 82.9 °F /  28.3 °C 50 °F /  10 °C 30in /  1015.2hPa ENE 3.4mph /  5.4km/h 5.2mph /  8.4km/h 32% 0in /  0.0mm
14:14 83.3 °F /  28.5 °C 49.8 °F /  9.9 °C 30in /  1015.1hPa Este 1.8mph /  2.9km/h 6.9mph /  11.1km/h 31.4% 0in /  0.0mm
14:19 83.3 °F /  28.5 °C 49.6 °F /  9.8 °C 30in /  1015.1hPa SE 2.1mph /  3.3km/h 9.2mph /  14.8km/h 31.2% 0in /  0.0mm
14:24 83.1 °F /  28.4 °C 50 °F /  10 °C 30in /  1014.9hPa ESE 4mph /  6.4km/h 9mph /  14.5km/h 31.7% 0in /  0.0mm
14:29 83.7 °F /  28.7 °C 50.4 °F /  10.2 °C 30in /  1014.8hPa ENE 3.9mph /  6.2km/h 5.9mph /  9.5km/h 31.8% 0in /  0.0mm
14:34 83.7 °F /  28.7 °C 49.6 °F /  9.8 °C 30in /  1014.8hPa NE 2.9mph /  4.7km/h 8.5mph /  13.7km/h 30.8% 0in /  0.0mm
14:39 83.7 °F /  28.7 °C 48.9 °F /  9.4 °C 30in /  1014.5hPa NNE 3.1mph /  5km/h 9mph /  14.5km/h 30% 0in /  0.0mm
14:44 83.7 °F /  28.7 °C 48.7 °F /  9.3 °C 30in /  1014.4hPa NNE 4.7mph /  7.5km/h 8mph /  12.9km/h 29.7% 0in /  0.0mm
14:49 84.2 °F /  29 °C 48.4 °F /  9.1 °C 30in /  1014.4hPa NE 4.5mph /  7.3km/h 6.2mph /  10km/h 28.9% 0in /  0.0mm
14:54 84.6 °F /  29.2 °C 47.5 °F /  8.6 °C 30in /  1014.3hPa NNE 3.6mph /  5.8km/h 6.4mph /  10.3km/h 27.7% 0in /  0.0mm
14:59 84.7 °F /  29.3 °C 47.7 °F /  8.7 °C 30in /  1014.2hPa North 3.6mph /  5.8km/h 7mph /  11.3km/h 27.5% 0in /  0.0mm
15:04 85.1 °F /  29.5 °C 47.3 °F /  8.5 °C 30in /  1014.2hPa NE 3.6mph /  5.8km/h 8.1mph /  13km/h 27% 0in /  0.0mm
15:09 85.3 °F /  29.6 °C 47.5 °F /  8.6 °C 29.9in /  1014.0hPa NNE 3.7mph /  5.9km/h 8mph /  12.9km/h 27% 0in /  0.0mm
15:14 85.5 °F /  29.7 °C 47.7 °F /  8.7 °C 29.9in /  1014.0hPa North 4mph /  6.4km/h 7mph /  11.3km/h 27% 0in /  0.0mm
15:19 85.6 °F /  29.8 °C 47.5 °F /  8.6 °C 29.9in /  1014.0hPa ENE 4mph /  6.4km/h 7mph /  11.3km/h 26.8% 0in /  0.0mm
15:24 85.6 °F /  29.8 °C 46.9 °F /  8.3 °C 29.9in /  1013.9hPa North 3.6mph /  5.8km/h 7mph /  11.3km/h 26.1% 0in /  0.0mm
15:29 86 °F /  30 °C 47.7 °F /  8.7 °C 29.9in /  1013.9hPa NNE 3.5mph /  5.6km/h 6.9mph /  11.1km/h 26.6% 0in /  0.0mm
15:34 86.2 °F /  30.1 °C 47.3 °F /  8.5 °C 29.9in /  1013.9hPa SSE 2.4mph /  3.9km/h 7mph /  11.3km/h 26.1% 0in /  0.0mm
15:39 86.2 °F /  30.1 °C 47.7 °F /  8.7 °C 29.9in /  1013.7hPa OSO 2.5mph /  4km/h 6mph /  9.7km/h 26.5% 0in /  0.0mm
15:44 86.5 °F /  30.3 °C 48 °F /  8.9 °C 29.9in /  1013.6hPa NE 3.1mph /  5km/h 4.7mph /  7.6km/h 26.5% 0in /  0.0mm
15:49 86.7 °F /  30.4 °C 47.7 °F /  8.7 °C 29.9in /  1013.6hPa NE 3mph /  4.9km/h 5mph /  8km/h 26% 0in /  0.0mm
15:54 86.7 °F /  30.4 °C 48.4 °F /  9.1 °C 29.9in /  1013.4hPa Este 2.9mph /  4.7km/h 11.5mph /  18.5km/h 26.7% 0in /  0.0mm
15:59 86.5 °F /  30.3 °C 48.7 °F /  9.3 °C 29.9in /  1013.4hPa SE 3.2mph /  5.1km/h 12mph /  19.3km/h 27% 0in /  0.0mm
16:04 86.5 °F /  30.3 °C 50.2 °F /  10.1 °C 29.9in /  1013.4hPa ESE 4.7mph /  7.5km/h 9.2mph /  14.8km/h 28.6% 0in /  0.0mm
16:09 86.5 °F /  30.3 °C 50.5 °F /  10.3 °C 29.9in /  1013.2hPa SE 4.9mph /  7.9km/h 11.8mph /  19km/h 29% 0in /  0.0mm
16:14 86.4 °F /  30.2 °C 51.1 °F /  10.6 °C 29.9in /  1013.2hPa SE 6.2mph /  10km/h 15mph /  24.1km/h 29.8% 0in /  0.0mm
16:19 86.2 °F /  30.1 °C 52 °F /  11.1 °C 29.9in /  1013.2hPa SE 6.6mph /  10.6km/h 17.3mph /  27.8km/h 31% 0in /  0.0mm
16:24 85.6 °F /  29.8 °C 51.6 °F /  10.9 °C 29.9in /  1013.1hPa ESE 9.2mph /  14.8km/h 17mph /  27.4km/h 31% 0in /  0.0mm
16:29 85.6 °F /  29.8 °C 52 °F /  11.1 °C 29.9in /  1013.0hPa SE 9.3mph /  14.9km/h 16mph /  25.7km/h 31.6% 0in /  0.0mm
16:34 85.5 °F /  29.7 °C 52.2 °F /  11.2 °C 29.9in /  1013.0hPa SE 9.7mph /  15.6km/h 15mph /  24.1km/h 32% 0in /  0.0mm
16:39 85.5 °F /  29.7 °C 52.3 °F /  11.3 °C 29.9in /  1012.9hPa SE 9.7mph /  15.6km/h 16.1mph /  25.9km/h 32.1% 0in /  0.0mm
16:44 85.5 °F /  29.7 °C 52.9 °F /  11.6 °C 29.9in /  1012.9hPa ESE 9.7mph /  15.6km/h 17.3mph /  27.8km/h 32.9% 0in /  0.0mm
16:49 85.1 °F /  29.5 °C 52.9 °F /  11.6 °C 29.9in /  1012.9hPa ESE 9.8mph /  15.7km/h 17mph /  27.4km/h 33.1% 0in /  0.0mm
16:54 85.1 °F /  29.5 °C 53.6 °F /  12 °C 29.9in /  1012.8hPa ESE 10mph /  16.1km/h 15mph /  24.1km/h 33.9% 0in /  0.0mm
16:59 85.3 °F /  29.6 °C 54.5 °F /  12.5 °C 29.9in /  1012.7hPa ESE 9.8mph /  15.7km/h 14mph /  22.5km/h 34.9% 0in /  0.0mm
17:04 85.5 °F /  29.7 °C 54.9 °F /  12.7 °C 29.9in /  1012.7hPa SE 8.7mph /  14km/h 15.2mph /  24.5km/h 35.3% 0in /  0.0mm
17:09 85.3 °F /  29.6 °C 56.1 °F /  13.4 °C 29.9in /  1012.7hPa ESE 8.8mph /  14.2km/h 15mph /  24.1km/h 37% 0in /  0.0mm
17:14 84.9 °F /  29.4 °C 55.6 °F /  13.1 °C 29.9in /  1012.7hPa ESE 9.7mph /  15.6km/h 15.2mph /  24.5km/h 36.7% 0in /  0.0mm
17:19 84.9 °F /  29.4 °C 54.9 °F /  12.7 °C 29.9in /  1012.8hPa SE 9.6mph /  15.4km/h 15mph /  24.1km/h 35.8% 0in /  0.0mm
17:24 85.1 °F /  29.5 °C 54.1 °F /  12.3 °C 29.9in /  1012.8hPa ESE 8.7mph /  14km/h 17.5mph /  28.2km/h 34.8% 0in /  0.0mm
17:29 84.9 °F /  29.4 °C 53.6 °F /  12 °C 29.9in /  1012.8hPa ESE 8.6mph /  13.9km/h 17.3mph /  27.8km/h 34.2% 0in /  0.0mm
17:34 85.1 °F /  29.5 °C 53.2 °F /  11.8 °C 29.9in /  1012.8hPa SE 8.1mph /  13km/h 15mph /  24.1km/h 33.7% 0in /  0.0mm
17:39 85.1 °F /  29.5 °C 52.3 °F /  11.3 °C 29.9in /  1012.7hPa SE 8.1mph /  13km/h 15mph /  24.1km/h 32.6% 0in /  0.0mm
17:44 84.9 °F /  29.4 °C 52.3 °F /  11.3 °C 29.9in /  1012.7hPa SE 8.1mph /  13km/h 15mph /  24.1km/h 32.6% 0in /  0.0mm
17:49 84.9 °F /  29.4 °C 52.5 °F /  11.4 °C 29.9in /  1012.7hPa ESE 8mph /  12.8km/h 15mph /  24.1km/h 32.9% 0in /  0.0mm
17:54 84.9 °F /  29.4 °C 52.3 °F /  11.3 °C 29.9in /  1012.6hPa ESE 6.9mph /  11.1km/h 13.8mph /  22.2km/h 32.7% 0in /  0.0mm
17:59 84.9 °F /  29.4 °C 51.8 °F /  11 °C 29.9in /  1012.6hPa SE 6.9mph /  11.1km/h 14mph /  22.5km/h 32% 0in /  0.0mm
18:04 84.7 °F /  29.3 °C 51.6 °F /  10.9 °C 29.9in /  1012.6hPa SE 6.9mph /  11.1km/h 13.8mph /  22.2km/h 32% 0in /  0.0mm
18:09 84.7 °F /  29.3 °C 51.6 °F /  10.9 °C 29.9in /  1012.5hPa SE 7mph /  11.2km/h 14mph /  22.5km/h 32% 0in /  0.0mm
18:14 84.7 °F /  29.3 °C 51.6 °F /  10.9 °C 29.9in /  1012.5hPa ESE 7.4mph /  11.9km/h 12mph /  19.3km/h 32% 0in /  0.0mm
18:19 84.6 °F /  29.2 °C 50.5 °F /  10.3 °C 29.9in /  1012.6hPa SE 7.3mph /  11.7km/h 13.8mph /  22.2km/h 30.9% 0in /  0.0mm
18:24 84.6 °F /  29.2 °C 50 °F /  10 °C 29.9in /  1012.6hPa SE 6.4mph /  10.3km/h 14mph /  22.5km/h 30.3% 0in /  0.0mm
18:29 84.6 °F /  29.2 °C 50.5 °F /  10.3 °C 29.9in /  1012.6hPa SE 6.5mph /  10.5km/h 13mph /  20.9km/h 31% 0in /  0.0mm
18:34 84.4 °F /  29.1 °C 50.4 °F /  10.2 °C 29.9in /  1012.6hPa SSE 7.6mph /  12.2km/h 13mph /  20.9km/h 31% 0in /  0.0mm
18:39 84.4 °F /  29.1 °C 50.4 °F /  10.2 °C 29.9in /  1012.5hPa SSE 7.4mph /  11.9km/h 10.7mph /  17.2km/h 31% 0in /  0.0mm
18:44 84.4 °F /  29.1 °C 50.2 °F /  10.1 °C 29.9in /  1012.4hPa SSE 5.9mph /  9.5km/h 12.7mph /  20.4km/h 30.8% 0in /  0.0mm
18:49 84 °F /  28.9 °C 50.2 °F /  10.1 °C 29.9in /  1012.5hPa SE 6mph /  9.6km/h 13mph /  20.9km/h 31% 0in /  0.0mm
18:54 83.8 °F /  28.8 °C 50.4 °F /  10.2 °C 29.9in /  1012.5hPa SE 6.4mph /  10.3km/h 13mph /  20.9km/h 31.5% 0in /  0.0mm
18:59 83.7 °F /  28.7 °C 50.7 °F /  10.4 °C 29.9in /  1012.5hPa ESE 6mph /  9.7km/h 10mph /  16.1km/h 32% 0in /  0.0mm
19:04 83.7 °F /  28.7 °C 50.5 °F /  10.3 °C 29.9in /  1012.5hPa SSE 4.3mph /  6.9km/h 9mph /  14.5km/h 31.8% 0in /  0.0mm
19:09 83.5 °F /  28.6 °C 50.5 °F /  10.3 °C 29.9in /  1012.5hPa SE 4.2mph /  6.8km/h 8mph /  12.9km/h 32% 0in /  0.0mm
19:14 83.5 °F /  28.6 °C 50.5 °F /  10.3 °C 29.9in /  1012.5hPa SSE 3.6mph /  5.8km/h 6.4mph /  10.3km/h 32% 0in /  0.0mm
19:19 83.1 °F /  28.4 °C 50.2 °F /  10.1 °C 29.9in /  1012.5hPa SSE 3.7mph /  5.9km/h 7.4mph /  11.9km/h 32% 0in /  0.0mm
19:24 82.9 °F /  28.3 °C 50 °F /  10 °C 29.9in /  1012.5hPa SSE 4.3mph /  6.9km/h 7mph /  11.3km/h 32% 0in /  0.0mm
19:29 82.8 °F /  28.2 °C 49.6 °F /  9.8 °C 29.9in /  1012.5hPa SSE 4.3mph /  7km/h 9.7mph /  15.6km/h 31.8% 0in /  0.0mm
19:34 82.2 °F /  27.9 °C 49.5 °F /  9.7 °C 29.9in /  1012.5hPa SSE 4.7mph /  7.6km/h 10.2mph /  16.4km/h 32% 0in /  0.0mm
19:39 81.9 °F /  27.7 °C 48.9 °F /  9.4 °C 29.9in /  1012.5hPa SSE 4.8mph /  7.8km/h 10.7mph /  17.2km/h 31.8% 0in /  0.0mm
19:44 81.5 °F /  27.5 °C 48 °F /  8.9 °C 29.9in /  1012.5hPa Sur 5.9mph /  9.5km/h 11mph /  17.7km/h 31% 0in /  0.0mm
19:49 81.3 °F /  27.4 °C 47.8 °F /  8.8 °C 29.9in /  1012.6hPa SSE 6mph /  9.6km/h 10mph /  16.1km/h 31% 0in /  0.0mm
19:54 81.1 °F /  27.3 °C 47.7 °F /  8.7 °C 29.9in /  1012.6hPa SSE 6.2mph /  10km/h 9mph /  14.5km/h 31% 0in /  0.0mm
19:59 81.1 °F /  27.3 °C 47.5 °F /  8.6 °C 29.9in /  1012.6hPa SSE 5.9mph /  9.5km/h 8mph /  12.9km/h 31% 0in /  0.0mm
20:04 81 °F /  27.2 °C 47.5 °F /  8.6 °C 29.9in /  1012.7hPa SE 4.3mph /  6.9km/h 7.6mph /  12.2km/h 31% 0in /  0.0mm
20:09 80.8 °F /  27.1 °C 47.3 °F /  8.5 °C 29.9in /  1012.7hPa SE 4.3mph /  6.9km/h 8.1mph /  13km/h 31% 0in /  0.0mm
20:14 80.6 °F /  27 °C 47.5 °F /  8.6 °C 29.9in /  1012.7hPa ESE 4.3mph /  6.9km/h 8mph /  12.9km/h 31.4% 0in /  0.0mm
20:19 80.2 °F /  26.8 °C 48.7 °F /  9.3 °C 29.9in /  1012.7hPa Este 4.1mph /  6.6km/h 5.8mph /  9.3km/h 33.2% 0in /  0.0mm
20:24 79.9 °F /  26.6 °C 48.9 °F /  9.4 °C 29.9in /  1012.7hPa Este 2.9mph /  4.7km/h 6mph /  9.7km/h 33.9% 0in /  0.0mm
20:29 79.5 °F /  26.4 °C 49.3 °F /  9.6 °C 29.9in /  1012.7hPa ENE 2.9mph /  4.7km/h 6mph /  9.7km/h 34.7% 0in /  0.0mm
20:34 79.3 °F /  26.3 °C 49.6 °F /  9.8 °C 29.9in /  1012.8hPa Este 2.9mph /  4.7km/h 4mph /  6.4km/h 35.5% 0in /  0.0mm
20:39 79.2 °F /  26.2 °C 50.2 °F /  10.1 °C 29.9in /  1012.8hPa ENE 2.7mph /  4.4km/h 3.6mph /  5.8km/h 36.5% 0in /  0.0mm
20:44 78.8 °F /  26 °C 50.4 °F /  10.2 °C 29.9in /  1012.8hPa NE 1.8mph /  2.9km/h 4mph /  6.4km/h 37% 0in /  0.0mm
20:49 78.4 °F /  25.8 °C 50.4 °F /  10.2 °C 29.9in /  1012.9hPa NE 1.7mph /  2.8km/h 2.3mph /  3.7km/h 37.5% 0in /  0.0mm
20:54 78.3 °F /  25.7 °C 49.8 °F /  9.9 °C 29.9in /  1012.9hPa Este 1.4mph /  2.2km/h 3.6mph /  5.8km/h 37.1% 0in /  0.0mm
20:59 78.1 °F /  25.6 °C 49.6 °F /  9.8 °C 29.9in /  1012.9hPa Este 1.6mph /  2.5km/h 4mph /  6.4km/h 37% 0in /  0.0mm
21:04 78.1 °F /  25.6 °C 49.6 °F /  9.8 °C 29.9in /  1013.0hPa Este 2.4mph /  3.9km/h 5mph /  8km/h 37% 0in /  0.0mm
21:09 77.9 °F /  25.5 °C 49.5 °F /  9.7 °C 29.9in /  1013.0hPa ENE 2.4mph /  3.9km/h 5mph /  8km/h 37% 0in /  0.0mm
21:14 77.5 °F /  25.3 °C 49.3 °F /  9.6 °C 29.9in /  1013.0hPa ESE 2.4mph /  3.9km/h 4mph /  6.4km/h 37% 0in /  0.0mm
21:19 77.5 °F /  25.3 °C 49.3 °F /  9.6 °C 29.9in /  1013.0hPa ESE 2.4mph /  3.8km/h 4mph /  6.4km/h 37% 0in /  0.0mm
21:24 77.4 °F /  25.2 °C 49.1 °F /  9.5 °C 29.9in /  1013.0hPa ESE 2mph /  3.2km/h 3.6mph /  5.8km/h 37.2% 0in /  0.0mm
21:29 77.4 °F /  25.2 °C 49.5 °F /  9.7 °C 29.9in /  1013.0hPa ESE 2mph /  3.2km/h 4mph /  6.4km/h 37.6% 0in /  0.0mm
21:34 77.4 °F /  25.2 °C 49.6 °F /  9.8 °C 29.9in /  1013.0hPa ESE 1.8mph /  2.9km/h 4mph /  6.4km/h 38% 0in /  0.0mm
21:39 77.2 °F /  25.1 °C 50.2 °F /  10.1 °C 29.9in /  1013.0hPa ESE 1.6mph /  2.5km/h 3mph /  4.8km/h 38.8% 0in /  0.0mm
21:44 77 °F /  25 °C 49.8 °F /  9.9 °C 29.9in /  1013.0hPa Calm   2.4mph /  3.9km/h 38.6% 0in /  0.0mm
21:49 76.6 °F /  24.8 °C 50.2 °F /  10.1 °C 29.9in /  1013.2hPa Calm   3.5mph /  5.6km/h 39.5% 0in /  0.0mm
21:54 76.5 °F /  24.7 °C 51.3 °F /  10.7 °C 29.9in /  1013.2hPa Calm   5.9mph /  9.5km/h 41.4% 0in /  0.0mm
21:59 75.7 °F /  24.3 °C 51.4 °F /  10.8 °C 29.9in /  1013.2hPa NNO 0.5mph /  0.8km/h 6mph /  9.7km/h 42.7% 0in /  0.0mm
22:04 75 °F /  23.9 °C 51.6 °F /  10.9 °C 29.9in /  1013.3hPa NNO 3.1mph /  5km/h 6mph /  9.7km/h 44% 0in /  0.0mm
22:09 74.7 °F /  23.7 °C 51.3 °F /  10.7 °C 29.9in /  1013.3hPa NNO 2.9mph /  4.7km/h 5mph /  8km/h 44.1% 0in /  0.0mm
22:14 74.3 °F /  23.5 °C 51.1 °F /  10.6 °C 29.9in /  1013.3hPa North 1.8mph /  2.9km/h 4mph /  6.4km/h 44% 0in /  0.0mm
22:19 74.5 °F /  23.6 °C 51.1 °F /  10.6 °C 29.9in /  1013.3hPa North 1.8mph /  2.9km/h 3mph /  4.8km/h 44% 0in /  0.0mm
22:24 74.5 °F /  23.6 °C 51.1 °F /  10.6 °C 29.9in /  1013.3hPa NNO 1.8mph /  2.9km/h 3.6mph /  5.8km/h 44% 0in /  0.0mm
22:29 74.5 °F /  23.6 °C 51.3 °F /  10.7 °C 29.9in /  1013.3hPa NO 1.8mph /  2.9km/h 4mph /  6.4km/h 44.1% 0in /  0.0mm
22:34 74.5 °F /  23.6 °C 51.4 °F /  10.8 °C 29.9in /  1013.3hPa NO 1.8mph /  2.9km/h 2.4mph /  3.9km/h 44.5% 0in /  0.0mm
22:39 74.3 °F /  23.5 °C 51.6 °F /  10.9 °C 29.9in /  1013.3hPa NO 1.6mph /  2.5km/h 2.3mph /  3.7km/h 45% 0in /  0.0mm
22:44 74.3 °F /  23.5 °C 50.9 °F /  10.5 °C 29.9in /  1013.3hPa Calm   4.6mph /  7.4km/h 44.1% 0in /  0.0mm
22:49 74.1 °F /  23.4 °C 50.2 °F /  10.1 °C 29.9in /  1013.4hPa ENE 0.2mph /  0.4km/h 5mph /  8km/h 43% 0in /  0.0mm
22:54 73.9 °F /  23.3 °C 50.2 °F /  10.1 °C 29.9in /  1013.4hPa Este 2mph /  3.2km/h 5.2mph /  8.4km/h 43% 0in /  0.0mm
22:59 73.9 °F /  23.3 °C 50 °F /  10 °C 29.9in /  1013.4hPa SE 2.2mph /  3.5km/h 5mph /  8km/h 43% 0in /  0.0mm
23:04 73.9 °F /  23.3 °C 50.2 °F /  10.1 °C 29.9in /  1013.4hPa SE 3.1mph /  5km/h 5.8mph /  9.3km/h 43.4% 0in /  0.0mm
23:09 73.8 °F /  23.2 °C 50.5 °F /  10.3 °C 29.9in /  1013.4hPa SE 3mph /  4.8km/h 6mph /  9.7km/h 44% 0in /  0.0mm
23:14 73.6 °F /  23.1 °C 50.4 °F /  10.2 °C 29.9in /  1013.4hPa SE 2.4mph /  3.9km/h 5mph /  8km/h 44% 0in /  0.0mm
23:19 73.6 °F /  23.1 °C 50.7 °F /  10.4 °C 29.9in /  1013.4hPa SSE 2.3mph /  3.7km/h 4.6mph /  7.4km/h 44.8% 0in /  0.0mm
23:24 73.6 °F /  23.1 °C 50.9 °F /  10.5 °C 29.9in /  1013.4hPa SSE 1.8mph /  2.9km/h 5mph /  8km/h 45% 0in /  0.0mm
23:29 73.8 °F /  23.2 °C 51.4 °F /  10.8 °C 29.9in /  1013.4hPa SSE 1.8mph /  2.9km/h 5mph /  8km/h 45.8% 0in /  0.0mm
23:34 73.6 °F /  23.1 °C 51.8 °F /  11 °C 29.9in /  1013.6hPa SSE 2mph /  3.2km/h 3.5mph /  5.6km/h 46.6% 0in /  0.0mm
23:39 73.6 °F /  23.1 °C 52.2 °F /  11.2 °C 29.9in /  1013.6hPa SSE 1.9mph /  3.1km/h 3mph /  4.8km/h 47.1% 0in /  0.0mm
23:44 73.2 °F /  22.9 °C 52.3 °F /  11.3 °C 29.9in /  1013.6hPa SSE 1.4mph /  2.2km/h 4.6mph /  7.4km/h 48.2% 0in /  0.0mm
23:49 72.9 °F /  22.7 °C 52.5 °F /  11.4 °C 29.9in /  1013.6hPa SSE 1.6mph /  2.5km/h 5.9mph /  9.5km/h 49.1% 0in /  0.0mm
23:54 72.5 °F /  22.5 °C 52.9 °F /  11.6 °C 29.9in /  1013.6hPa SSE 2.9mph /  4.7km/h 6mph /  9.7km/h 50.2% 0in /  0.0mm
23:59 72.1 °F /  22.3 °C 53.1 °F /  11.7 °C 29.9in /  1013.6hPa SSE 3mph /  4.8km/h 6.2mph /  10km/h 51% 0in /  0.0mm
Murcia-Puente Tocinos, Espa?a
Compliments of Weather Underground - 3.25 mb

La estación de MeteoMurcia.com, publica sus datos en los siguientes proyectos:

Weather Underground PWS IMURCIAP2 Meteoclimatic www.awekas.at

W3Counter
Web Analytics